Accueil
METAR-TAF:

METAR-TAF

Aéroports :

South Jersey Regional Airport

Mount Holly, New Jersey, États-Unis

latitude: 39-56-26N, longitude: 074-50-28W, altitude: 16 m

Observation

Le bulletin a été fait il y a 10 minutes, à 22:12 UTC
Vent 4 kt de nord/nord-ouest
Température 18°C
Humidité 94%
Pression 1019 hPa
Visibilité: 4.0 km
Nuages fragmentés à une hauteur de 400 ft
Nuages fragmentés à une hauteur de 1200 ft
Ciel couvert à une hauteur de 3700 ft
pluie faible, brume

METAR: KVAY 262212Z AUTO 34004KT 2 1/2SM -RA BR BKN004 BKN012 OVC037 18/17 A3008 RMK AO2 RAB01 P0000 T01780172

Heure: 18:22 (22:22 UTC)


TAF: absent

Observations et prévisions météorologiques de plus de 4000 aéroports (messages METAR et TAF).

Les stations disponibles sont représentées par des disques jaunes et rouges sur la carte.

Passer la souris dessus pour voir le nom de la station.

Cliquer dessus pour voir les observations et prévisions météorologiques.

Pour changer de carte: cliquez sur les boutons verts avec une croix noire pour zoomer, sur le bouton vert avec un tiret pour effectuer un zoom arrière, ou sur les flèches vertes pour les cartes adjacentes.


METAR-TAF: